Time;durP1;ratioP1;P1;durP2;ratioP2;P2;SDS_P1;SDS_P2;PMS_P1;PMS_P2;Temp;Humidity;BMP_temperature;BMP_pressure;BME280_temperature;BME280_humidity;BME280_pressure;Samples;Min_cycle;Max_cycle;Signal;HPM_P1;HPM_P2
2022/01/09 00:00:20;;;;;;;0.70;0.70;;;-1.50;99.90;;;;;;5063666;28;20220;-84
2022/01/09 00:02:46;;;;;;;0.70;0.70;;;-1.50;99.90;;;;;;5059666;28;20292;-84
2022/01/09 00:05:12;;;;;;;0.60;0.60;;;-1.40;99.90;;;;;;5059544;28;20274;-84
2022/01/09 00:07:38;;;;;;;0.60;0.60;;;-1.50;99.90;;;;;;5058121;28;20205;-82
2022/01/09 00:10:06;;;;;;;0.70;0.70;;;-1.50;99.90;;;;;;5068962;28;20235;-82
2022/01/09 00:12:32;;;;;;;0.63;0.63;;;-1.50;99.90;;;;;;5072344;28;20259;-82
2022/01/09 00:14:58;;;;;;;0.85;0.85;;;-1.50;99.90;;;;;;5063538;28;20217;-82
2022/01/09 00:17:23;;;;;;;0.70;0.70;;;-1.50;99.90;;;;;;5065623;28;20254;-82
2022/01/09 00:19:49;;;;;;;1.10;1.10;;;-1.50;99.90;;;;;;5073415;28;20235;-81
2022/01/09 00:22:18;;;;;;;0.73;0.73;;;-1.50;99.90;;;;;;5064754;28;20197;-81
2022/01/09 00:24:44;;;;;;;0.77;0.77;;;-1.50;99.90;;;;;;5061646;28;20271;-80
2022/01/09 00:27:10;;;;;;;0.75;0.75;;;-1.60;99.90;;;;;;5073780;28;20595;-83
2022/01/09 00:29:35;;;;;;;0.70;0.70;;;-1.50;99.90;;;;;;5075319;28;20205;-83
2022/01/09 00:32:01;;;;;;;0.80;0.80;;;-1.50;99.90;;;;;;5073114;28;20215;-82
2022/01/09 00:34:27;;;;;;;0.80;0.80;;;-1.50;99.90;;;;;;5071530;28;20239;-82
2022/01/09 00:36:52;;;;;;;0.70;0.70;;;-1.60;99.90;;;;;;5071418;28;20992;-81
2022/01/09 00:39:18;;;;;;;0.70;0.70;;;-1.60;99.90;;;;;;5072938;28;20244;-82
2022/01/09 00:41:46;;;;;;;0.65;0.65;;;-1.60;99.90;;;;;;5071589;28;20208;-82
2022/01/09 00:44:11;;;;;;;0.88;0.88;;;-1.60;99.90;;;;;;5070924;28;20200;-83
2022/01/09 00:46:37;;;;;;;0.77;0.77;;;-1.60;99.90;;;;;;5055265;28;20209;-81
2022/01/09 00:49:04;;;;;;;1.20;1.10;;;-1.60;99.90;;;;;;5057051;28;20201;-83
2022/01/09 00:51:31;;;;;;;3.92;2.35;;;-1.60;99.90;;;;;;5072293;28;20205;-81
2022/01/09 00:53:56;;;;;;;0.60;0.60;;;-1.60;99.90;;;;;;5058043;28;20262;-82
2022/01/09 00:56:22;;;;;;;0.60;0.60;;;-1.60;99.90;;;;;;5070661;28;20205;-83
2022/01/09 00:58:48;;;;;;;0.70;0.70;;;-1.70;99.90;;;;;;5075435;28;20225;-84
2022/01/09 01:01:14;;;;;;;0.70;0.70;;;-1.60;99.90;;;;;;5064421;28;20209;-83
2022/01/09 01:03:40;;;;;;;0.70;0.70;;;-1.70;99.90;;;;;;5058237;28;20811;-83
2022/01/09 01:06:05;;;;;;;0.93;0.93;;;-1.60;99.90;;;;;;5068652;28;20291;-83
2022/01/09 01:08:31;;;;;;;0.70;0.70;;;-1.70;99.90;;;;;;5074029;28;20197;-82
2022/01/09 01:11:00;;;;;;;0.70;0.70;;;-1.70;99.90;;;;;;5068012;28;20220;-82
2022/01/09 01:13:25;;;;;;;0.70;0.70;;;-1.70;99.90;;;;;;5063421;28;20743;-82
2022/01/09 01:15:51;;;;;;;0.70;0.70;;;-1.70;99.90;;;;;;5071638;28;20224;-82
2022/01/09 01:18:17;;;;;;;0.70;0.70;;;-1.80;99.90;;;;;;5072150;28;20209;-83
2022/01/09 01:20:43;;;;;;;0.75;0.75;;;-1.80;99.90;;;;;;5067741;28;20661;-82
2022/01/09 01:23:08;;;;;;;0.70;0.70;;;-1.80;99.90;;;;;;5060180;28;20311;-82
2022/01/09 01:25:36;;;;;;;0.63;0.63;;;-1.80;99.90;;;;;;5073738;28;20197;-83
2022/01/09 01:28:02;;;;;;;0.70;0.70;;;-1.80;99.90;;;;;;5073655;28;20221;-83
2022/01/09 01:30:27;;;;;;;0.50;0.50;;;-1.90;99.90;;;;;;5072938;28;20254;-82
2022/01/09 01:32:53;;;;;;;0.73;0.73;;;-1.90;99.90;;;;;;5072993;28;20265;-82
2022/01/09 01:35:19;;;;;;;0.70;0.70;;;-1.90;99.90;;;;;;5073266;28;20220;-82
2022/01/09 01:37:50;;;;;;;0.70;0.70;;;-1.90;99.90;;;;;;5072922;28;20207;-82
2022/01/09 01:40:18;;;;;;;0.60;0.60;;;-1.90;99.90;;;;;;5056007;28;20238;-83
2022/01/09 01:42:45;;;;;;;0.60;0.60;;;-1.90;99.90;;;;;;5072785;28;20204;-82
2022/01/09 01:45:11;;;;;;;0.88;0.88;;;-1.80;99.90;;;;;;5073120;28;20188;-82
2022/01/09 01:47:37;;;;;;;0.80;0.80;;;-1.90;99.90;;;;;;5074185;28;20228;-82
2022/01/09 01:50:08;;;;;;;0.73;0.73;;;-1.90;99.90;;;;;;5056869;28;20707;-81
2022/01/09 01:52:40;;;;;;;0.70;0.70;;;-1.90;99.90;;;;;;5073050;28;20203;-84
2022/01/09 01:55:08;;;;;;;1.42;1.33;;;-1.90;99.90;;;;;;5056824;28;20202;-83
2022/01/09 01:57:35;;;;;;;0.80;0.80;;;-1.90;99.90;;;;;;5071914;28;20220;-83
2022/01/09 02:00:03;;;;;;;0.70;0.70;;;-1.90;99.90;;;;;;5060713;28;20676;-83
2022/01/09 02:02:29;;;;;;;0.60;0.60;;;-2.00;99.90;;;;;;5074318;28;20267;-81
2022/01/09 02:04:55;;;;;;;0.70;0.70;;;-2.00;99.90;;;;;;5075255;28;20193;-82
2022/01/09 02:07:21;;;;;;;0.70;0.70;;;-2.10;99.90;;;;;;5072182;28;20204;-83
2022/01/09 02:09:47;;;;;;;0.70;0.70;;;-2.10;99.90;;;;;;5058587;28;20205;-82
2022/01/09 02:12:13;;;;;;;0.70;0.70;;;-2.10;99.90;;;;;;5075843;28;20276;-82
2022/01/09 02:14:43;;;;;;;0.88;0.88;;;-2.10;99.90;;;;;;5059306;28;20236;-80
2022/01/09 02:17:09;;;;;;;0.80;0.80;;;-2.20;99.90;;;;;;5071154;28;20207;-80
2022/01/09 02:19:34;;;;;;;0.60;0.60;;;-2.20;99.90;;;;;;5073539;28;20205;-81
2022/01/09 02:22:00;;;;;;;0.70;0.70;;;-2.10;99.90;;;;;;5062407;28;20212;-81
2022/01/09 02:24:26;;;;;;;0.60;0.60;;;-2.10;99.90;;;;;;5071700;28;20222;-81
2022/01/09 02:26:52;;;;;;;0.80;0.80;;;-2.20;99.90;;;;;;5075378;28;20205;-81
2022/01/09 02:29:19;;;;;;;0.70;0.70;;;-2.20;99.90;;;;;;5069192;28;20201;-82
2022/01/09 02:31:45;;;;;;;0.80;0.80;;;-2.20;99.90;;;;;;5068041;28;20204;-81
2022/01/09 02:34:11;;;;;;;0.57;0.57;;;-2.20;99.90;;;;;;5078631;28;20684;-81
2022/01/09 02:36:37;;;;;;;0.75;0.75;;;-2.20;99.90;;;;;;5076699;28;20232;-81
2022/01/09 02:39:03;;;;;;;0.80;0.80;;;-2.20;99.90;;;;;;5077687;28;20664;-81
2022/01/09 02:41:29;;;;;;;0.70;0.70;;;-2.10;99.90;;;;;;5072584;28;20562;-82
2022/01/09 02:43:55;;;;;;;0.60;0.60;;;-2.00;99.90;;;;;;5058990;28;20203;-82
2022/01/09 02:46:40;;;;;;;0.60;0.60;;;-2.00;99.90;;;;;;5059145;28;20205;-82
2022/01/09 02:49:07;;;;;;;0.60;0.60;;;-2.00;99.90;;;;;;5074904;28;20205;-82
2022/01/09 02:51:39;;;;;;;2.90;2.13;;;-2.00;99.90;;;;;;5061426;28;20664;-82
2022/01/09 02:56:49;;;;;;;1.20;1.10;;;-1.90;99.90;;;;;;5077243;28;20325;-81
2022/01/09 02:59:15;;;;;;;0.70;0.70;;;-1.90;99.90;;;;;;5071351;28;20201;-81
2022/01/09 03:01:41;;;;;;;0.70;0.70;;;-1.90;99.90;;;;;;5067467;28;20214;-81
2022/01/09 03:04:07;;;;;;;0.77;0.77;;;-1.90;99.90;;;;;;5076105;28;20201;-83
2022/01/09 03:06:32;;;;;;;0.70;0.70;;;-1.90;99.90;;;;;;5074231;28;20225;-81
2022/01/09 03:09:01;;;;;;;0.90;0.90;;;-1.90;99.90;;;;;;5075680;28;20196;-81
2022/01/09 03:11:26;;;;;;;0.70;0.70;;;-1.90;99.90;;;;;;5074361;28;20205;-81
2022/01/09 03:13:52;;;;;;;0.60;0.60;;;-1.80;99.90;;;;;;5074243;28;20212;-81
2022/01/09 03:16:18;;;;;;;2.55;1.17;;;-1.80;99.90;;;;;;5060859;28;20210;-82
2022/01/09 03:18:44;;;;;;;0.80;0.80;;;-1.80;99.90;;;;;;5060864;28;20204;-81
2022/01/09 03:21:09;;;;;;;0.70;0.70;;;-1.80;99.90;;;;;;5076729;28;20212;-82
2022/01/09 03:23:35;;;;;;;0.77;0.77;;;-1.80;99.90;;;;;;5077191;28;20200;-83
2022/01/09 03:26:02;;;;;;;0.65;0.65;;;-1.80;99.90;;;;;;5059890;28;20197;-82
2022/01/09 03:28:28;;;;;;;0.60;0.60;;;-1.80;99.90;;;;;;5076118;28;20444;-83
2022/01/09 03:30:54;;;;;;;0.80;0.80;;;-1.80;99.90;;;;;;5077821;28;20720;-81
2022/01/09 03:33:20;;;;;;;0.70;0.70;;;-1.80;99.90;;;;;;5077113;28;20208;-81
2022/01/09 03:35:46;;;;;;;0.70;0.70;;;-1.70;99.90;;;;;;5061511;28;20205;-81
2022/01/09 03:38:12;;;;;;;0.70;0.70;;;-1.80;99.90;;;;;;5074854;28;20224;-82
2022/01/09 03:40:38;;;;;;;0.80;0.80;;;-1.80;99.90;;;;;;5074851;28;20220;-81
2022/01/09 03:43:04;;;;;;;0.60;0.60;;;-1.80;99.90;;;;;;5075434;28;20246;-81
2022/01/09 03:45:31;;;;;;;0.60;0.60;;;-1.80;99.90;;;;;;5075713;28;20233;-82
2022/01/09 03:47:57;;;;;;;0.70;0.70;;;-1.80;99.90;;;;;;5075755;28;20197;-81
2022/01/09 03:50:24;;;;;;;1.42;1.33;;;-1.80;99.90;;;;;;5076373;28;20215;-82
2022/01/09 03:52:50;;;;;;;0.75;0.75;;;-1.70;99.90;;;;;;5077966;28;20197;-82
2022/01/09 03:55:19;;;;;;;0.98;0.95;;;-1.70;99.90;;;;;;5076922;28;20205;-82
2022/01/09 03:57:46;;;;;;;0.70;0.70;;;-1.70;99.90;;;;;;5076412;28;20242;-82
2022/01/09 04:00:15;;;;;;;0.80;0.80;;;-1.70;99.90;;;;;;5067788;28;20224;-80
2022/01/09 04:02:42;;;;;;;0.70;0.70;;;-1.80;99.90;;;;;;5075160;28;20266;-82
2022/01/09 04:05:08;;;;;;;2.30;1.70;;;-1.70;99.90;;;;;;5075997;28;20660;-81
2022/01/09 04:07:36;;;;;;;0.95;0.90;;;-1.70;99.90;;;;;;5068451;28;20206;-82
2022/01/09 04:10:03;;;;;;;0.70;0.70;;;-1.60;99.90;;;;;;5059170;28;20217;-82
2022/01/09 04:12:34;;;;;;;0.60;0.60;;;-1.60;99.90;;;;;;5059448;28;20696;-81
2022/01/09 04:15:06;;;;;;;0.77;0.77;;;-1.70;99.90;;;;;;5062369;28;20221;-82
2022/01/09 04:20:13;;;;;;;0.70;0.70;;;-1.70;99.90;;;;;;5059718;28;20205;-82
2022/01/09 04:22:39;;;;;;;0.80;0.80;;;-1.70;99.90;;;;;;5062130;28;20308;-82
2022/01/09 04:25:05;;;;;;;0.80;0.80;;;-1.80;99.90;;;;;;5075720;28;20220;-84
2022/01/09 04:27:32;;;;;;;0.60;0.60;;;-1.70;99.90;;;;;;5077573;28;20686;-82
2022/01/09 04:29:57;;;;;;;0.80;0.80;;;-1.70;99.90;;;;;;5076033;28;20279;-82
2022/01/09 04:32:24;;;;;;;0.60;0.60;;;-1.70;99.90;;;;;;5059615;28;20617;-83
2022/01/09 04:34:50;;;;;;;0.70;0.70;;;-1.60;99.90;;;;;;5075895;28;20197;-84
2022/01/09 04:37:16;;;;;;;0.70;0.70;;;-1.70;99.90;;;;;;5074378;28;20204;-84
2022/01/09 04:39:42;;;;;;;0.80;0.80;;;-1.70;99.90;;;;;;5074234;28;20608;-83
2022/01/09 04:42:13;;;;;;;0.70;0.70;;;-1.70;99.90;;;;;;5076162;28;20235;-84
2022/01/09 04:44:39;;;;;;;0.70;0.70;;;-1.70;99.90;;;;;;5059365;28;20205;-86
2022/01/09 04:47:10;;;;;;;0.77;0.77;;;-1.70;99.90;;;;;;5075583;28;20200;-81
2022/01/09 04:49:39;;;;;;;1.05;1.00;;;-1.70;99.90;;;;;;5059952;28;20672;-82
2022/01/09 04:52:08;;;;;;;0.75;0.75;;;-1.70;99.90;;;;;;5074799;28;20664;-82
2022/01/09 04:54:34;;;;;;;0.80;0.80;;;-1.70;99.90;;;;;;5077113;28;20200;-82
2022/01/09 04:57:01;;;;;;;0.68;0.68;;;-1.70;99.90;;;;;;5075543;28;20591;-83
2022/01/09 04:59:28;;;;;;;0.70;0.70;;;-1.70;99.90;;;;;;5075117;28;20213;-83
2022/01/09 05:01:54;;;;;;;0.70;0.70;;;-1.70;99.90;;;;;;5076342;28;20308;-82
2022/01/09 05:04:20;;;;;;;0.50;0.50;;;-1.60;99.90;;;;;;5075649;28;20692;-83
2022/01/09 05:06:45;;;;;;;0.70;0.70;;;-1.60;99.90;;;;;;5066626;28;20626;-82
2022/01/09 05:09:11;;;;;;;0.90;0.90;;;-1.60;99.90;;;;;;5070659;28;20196;-82
2022/01/09 05:11:38;;;;;;;0.70;0.70;;;-1.60;99.90;;;;;;5065714;28;20231;-82
2022/01/09 05:14:03;;;;;;;0.80;0.80;;;-1.60;99.90;;;;;;5068631;28;20204;-82
2022/01/09 05:16:30;;;;;;;0.80;0.80;;;-1.60;99.90;;;;;;5075165;28;20196;-82
2022/01/09 05:19:03;;;;;;;0.70;0.70;;;-1.60;99.90;;;;;;5069006;28;20197;-83
2022/01/09 05:21:29;;;;;;;0.77;0.77;;;-1.60;99.90;;;;;;5057735;28;20221;-84
2022/01/09 05:23:55;;;;;;;0.90;0.90;;;-1.60;99.90;;;;;;5065011;28;20660;-83
2022/01/09 05:26:20;;;;;;;0.60;0.60;;;-1.60;99.90;;;;;;5074863;28;20197;-82
2022/01/09 05:28:47;;;;;;;0.70;0.70;;;-1.60;99.90;;;;;;5076138;28;20211;-83
2022/01/09 05:31:14;;;;;;;0.70;0.70;;;-1.60;99.90;;;;;;5074798;28;20638;-81
2022/01/09 05:33:40;;;;;;;0.70;0.70;;;-1.60;99.90;;;;;;5076030;28;20691;-82
2022/01/09 05:36:05;;;;;;;0.70;0.70;;;-1.70;99.90;;;;;;5074035;28;20212;-83
2022/01/09 05:38:32;;;;;;;1.17;1.13;;;-1.70;99.90;;;;;;5074591;28;20250;-83
2022/01/09 05:40:58;;;;;;;0.63;0.63;;;-1.70;99.90;;;;;;5056930;28;20232;-83
2022/01/09 05:43:25;;;;;;;0.70;0.70;;;-1.80;99.90;;;;;;5057846;28;20224;-83
2022/01/09 05:45:51;;;;;;;0.90;0.90;;;-1.70;99.90;;;;;;5059439;28;20273;-83
2022/01/09 05:48:17;;;;;;;0.73;0.73;;;-1.70;99.90;;;;;;5072979;28;20288;-83
2022/01/09 05:50:43;;;;;;;0.70;0.70;;;-1.80;99.90;;;;;;5074331;28;20278;-82
2022/01/09 05:53:09;;;;;;;0.65;0.65;;;-1.80;99.90;;;;;;5073166;28;20680;-82
2022/01/09 05:55:35;;;;;;;0.70;0.70;;;-1.80;99.90;;;;;;5061303;28;20201;-83
2022/01/09 05:58:01;;;;;;;0.70;0.70;;;-1.90;99.90;;;;;;5073916;28;20230;-82
2022/01/09 06:00:27;;;;;;;0.70;0.70;;;-2.00;99.90;;;;;;5061025;28;20680;-83
2022/01/09 06:02:52;;;;;;;0.82;0.82;;;-2.00;99.90;;;;;;5068029;28;20202;-83
2022/01/09 06:05:18;;;;;;;0.70;0.70;;;-2.00;99.90;;;;;;5075845;28;20204;-84
2022/01/09 06:07:45;;;;;;;1.98;1.88;;;-2.00;99.90;;;;;;5076129;28;20200;-84
2022/01/09 06:10:11;;;;;;;1.90;1.73;;;-2.00;99.90;;;;;;5076391;28;20736;-83
2022/01/09 06:12:37;;;;;;;0.77;0.77;;;-2.00;99.90;;;;;;5065298;28;20692;-85
2022/01/09 06:15:04;;;;;;;0.60;0.60;;;-2.00;99.90;;;;;;5063518;28;20203;-82
2022/01/09 06:17:36;;;;;;;0.80;0.80;;;-2.00;99.90;;;;;;5074480;28;20197;-83
2022/01/09 06:20:02;;;;;;;0.80;0.80;;;-2.00;99.90;;;;;;5071110;28;20228;-82
2022/01/09 06:22:28;;;;;;;1.25;1.15;;;-2.00;99.90;;;;;;5060089;28;20652;-82
2022/01/09 06:24:53;;;;;;;0.70;0.70;;;-2.00;99.90;;;;;;5074050;28;20192;-83
2022/01/09 06:27:19;;;;;;;0.80;0.80;;;-2.00;99.90;;;;;;5072444;28;20575;-82
2022/01/09 06:29:45;;;;;;;0.70;0.70;;;-2.00;99.90;;;;;;5056397;28;20197;-83
2022/01/09 06:32:13;;;;;;;0.80;0.80;;;-2.00;99.90;;;;;;5072944;28;20226;-82
2022/01/09 06:34:41;;;;;;;0.70;0.70;;;-2.10;99.90;;;;;;5056231;28;20216;-83
2022/01/09 06:37:07;;;;;;;0.80;0.80;;;-2.00;99.90;;;;;;5073009;28;20253;-84
2022/01/09 06:39:33;;;;;;;1.42;1.33;;;-2.00;99.90;;;;;;5073841;28;20216;-82
2022/01/09 06:41:59;;;;;;;0.88;0.88;;;-2.10;99.90;;;;;;5055033;28;20209;-83
2022/01/09 06:44:25;;;;;;;0.80;0.80;;;-2.10;99.90;;;;;;5073853;28;20276;-84
2022/01/09 06:46:51;;;;;;;0.80;0.80;;;-2.10;99.90;;;;;;5073382;28;20583;-81
2022/01/09 06:49:17;;;;;;;0.60;0.60;;;-2.20;99.90;;;;;;5073974;28;20192;-81
2022/01/09 06:51:42;;;;;;;0.80;0.80;;;-2.20;99.90;;;;;;5075044;28;20201;-82
2022/01/09 06:54:08;;;;;;;2.10;2.00;;;-2.20;99.90;;;;;;5072664;28;20260;-81
2022/01/09 06:56:34;;;;;;;0.70;0.70;;;-2.10;99.90;;;;;;5067103;28;20215;-82
2022/01/09 06:59:00;;;;;;;0.75;0.75;;;-2.20;99.90;;;;;;5071744;28;20680;-83
2022/01/09 07:01:25;;;;;;;0.80;0.80;;;-2.10;99.90;;;;;;5058426;28;20780;-82
2022/01/09 07:03:51;;;;;;;1.05;1.05;;;-2.10;99.90;;;;;;5057702;28;20202;-81
2022/01/09 07:06:17;;;;;;;0.88;0.88;;;-2.10;99.90;;;;;;5069838;28;20196;-82
2022/01/09 07:08:43;;;;;;;3.00;1.55;;;-2.10;99.90;;;;;;5073156;28;20211;-81
2022/01/09 07:11:09;;;;;;;1.02;0.98;;;-2.10;99.90;;;;;;5065934;28;20217;-82
2022/01/09 07:13:35;;;;;;;0.88;0.88;;;-2.10;99.90;;;;;;5071443;28;20232;-82
2022/01/09 07:16:01;;;;;;;0.90;0.90;;;-2.10;99.90;;;;;;5067815;28;20299;-82
2022/01/09 07:18:27;;;;;;;3.30;1.70;;;-2.00;99.90;;;;;;5067404;28;20209;-83
2022/01/09 07:20:52;;;;;;;0.90;0.90;;;-2.10;99.90;;;;;;5075401;28;20208;-82
2022/01/09 07:23:18;;;;;;;0.90;0.90;;;-2.10;99.90;;;;;;5069281;28;20796;-80
2022/01/09 07:25:44;;;;;;;0.90;0.90;;;-2.00;99.90;;;;;;5072995;28;20219;-80
2022/01/09 07:28:10;;;;;;;1.00;1.00;;;-2.10;99.90;;;;;;5074658;28;20615;-81
2022/01/09 07:30:36;;;;;;;1.10;1.10;;;-2.00;99.90;;;;;;5071254;28;20207;-80
2022/01/09 07:33:04;;;;;;;0.80;0.80;;;-2.00;99.90;;;;;;5058461;28;20265;-81
2022/01/09 07:35:30;;;;;;;1.15;1.13;;;-2.00;99.90;;;;;;5073563;28;20198;-81
2022/01/09 07:37:56;;;;;;;0.85;0.85;;;-2.00;99.90;;;;;;5076535;28;20205;-82
2022/01/09 07:40:22;;;;;;;0.95;0.93;;;-2.10;99.90;;;;;;5057091;28;20695;-80
2022/01/09 07:42:48;;;;;;;0.98;0.98;;;-2.10;99.90;;;;;;5073959;28;20204;-82
2022/01/09 07:45:22;;;;;;;0.73;0.73;;;-2.10;99.90;;;;;;5057071;28;20572;-80
2022/01/09 07:47:48;;;;;;;0.80;0.80;;;-2.10;99.90;;;;;;5056580;28;20235;-79
2022/01/09 07:50:14;;;;;;;0.95;0.95;;;-2.10;99.90;;;;;;5073736;28;20282;-81
2022/01/09 07:52:40;;;;;;;0.80;0.80;;;-2.10;99.90;;;;;;5060555;28;20691;-80
2022/01/09 07:55:10;;;;;;;0.90;0.90;;;-2.20;99.90;;;;;;5073189;28;20201;-81
2022/01/09 07:57:36;;;;;;;0.95;0.95;;;-2.20;99.90;;;;;;5074874;28;20228;-80
2022/01/09 08:00:05;;;;;;;0.70;0.70;;;-2.10;99.90;;;;;;5060491;28;20631;-80
2022/01/09 08:02:30;;;;;;;5.18;1.83;;;-2.10;99.90;;;;;;5067482;28;20185;-80
2022/01/09 08:04:56;;;;;;;3.95;2.60;;;-2.10;99.90;;;;;;5063431;28;20201;-80
2022/01/09 08:07:22;;;;;;;3.45;2.90;;;-2.10;99.90;;;;;;5065432;28;20197;-79
2022/01/09 08:09:48;;;;;;;1.95;1.75;;;-2.10;99.90;;;;;;5066735;28;20231;-79
2022/01/09 08:12:17;;;;;;;1.38;1.27;;;-2.00;99.90;;;;;;5064025;28;20280;-80
2022/01/09 08:14:43;;;;;;;2.05;1.70;;;-2.00;99.90;;;;;;5066218;28;20267;-80
2022/01/09 08:17:09;;;;;;;0.73;0.73;;;-2.00;99.90;;;;;;5057225;28;20201;-80
2022/01/09 08:19:35;;;;;;;0.90;0.90;;;-2.00;99.90;;;;;;5060787;28;20232;-79
2022/01/09 08:22:05;;;;;;;0.88;0.88;;;-2.00;99.90;;;;;;5071644;28;20205;-79
2022/01/09 08:24:37;;;;;;;0.77;0.77;;;-2.00;99.90;;;;;;5072302;28;20565;-80
2022/01/09 08:27:06;;;;;;;1.48;1.38;;;-2.00;99.90;;;;;;5069985;28;20189;-80
2022/01/09 08:29:32;;;;;;;1.27;1.17;;;-1.90;99.90;;;;;;5055528;28;20201;-80
2022/01/09 08:31:58;;;;;;;1.38;1.27;;;-1.90;99.90;;;;;;5058849;28;20235;-80
2022/01/09 08:34:23;;;;;;;0.70;0.70;;;-1.80;99.90;;;;;;5071427;28;20244;-80
2022/01/09 08:36:49;;;;;;;1.48;1.38;;;-1.80;99.90;;;;;;5056060;28;20339;-79
2022/01/09 08:39:15;;;;;;;1.38;1.30;;;-1.80;99.90;;;;;;5071880;28;20196;-81
2022/01/09 08:41:41;;;;;;;0.77;0.77;;;-1.80;99.90;;;;;;5054781;28;20228;-80
2022/01/09 08:44:07;;;;;;;0.75;0.75;;;-1.80;99.90;;;;;;5055888;28;20305;-80
2022/01/09 08:46:34;;;;;;;0.98;0.98;;;-1.80;99.90;;;;;;5057672;28;20575;-80
2022/01/09 08:49:01;;;;;;;0.70;0.70;;;-1.80;99.90;;;;;;5070190;28;20213;-80
2022/01/09 08:51:27;;;;;;;0.70;0.70;;;-1.80;99.90;;;;;;5071620;28;20216;-80
2022/01/09 08:53:53;;;;;;;1.00;1.00;;;-1.80;99.90;;;;;;5060177;28;20209;-79
2022/01/09 08:56:20;;;;;;;0.70;0.70;;;-1.80;99.90;;;;;;5063054;28;20647;-80
2022/01/09 08:58:46;;;;;;;0.82;0.82;;;-1.70;99.90;;;;;;5059943;28;20232;-79
2022/01/09 09:01:12;;;;;;;0.60;0.60;;;-1.70;99.90;;;;;;5056157;28;20213;-80
2022/01/09 09:03:41;;;;;;;0.80;0.80;;;-1.70;99.90;;;;;;5065915;28;20203;-80
2022/01/09 09:06:15;;;;;;;0.68;0.68;;;-1.70;99.90;;;;;;5073827;28;20692;-80
2022/01/09 09:08:42;;;;;;;1.10;1.10;;;-1.70;99.90;;;;;;5063487;28;20208;-80
2022/01/09 09:11:09;;;;;;;0.70;0.70;;;-1.60;99.90;;;;;;5064709;28;20232;-80
2022/01/09 09:13:35;;;;;;;0.70;0.70;;;-1.50;99.90;;;;;;5065805;28;20703;-80
2022/01/09 09:16:02;;;;;;;0.60;0.60;;;-1.50;99.90;;;;;;5064704;28;20189;-82
2022/01/09 09:18:28;;;;;;;0.70;0.70;;;-1.40;99.90;;;;;;5075149;28;20205;-82
2022/01/09 09:20:54;;;;;;;0.80;0.80;;;-1.40;99.90;;;;;;5073365;28;20342;-81
2022/01/09 09:23:20;;;;;;;0.75;0.75;;;-1.40;99.90;;;;;;5078171;28;20647;-82
2022/01/09 09:25:57;;;;;;;0.70;0.70;;;-1.30;99.90;;;;;;5080569;28;20204;-78
2022/01/09 09:28:22;;;;;;;0.70;0.70;;;-1.40;99.90;;;;;;5075774;28;20197;-81
2022/01/09 09:30:48;;;;;;;0.90;0.90;;;-1.40;99.90;;;;;;5070511;28;20224;-80
2022/01/09 09:33:14;;;;;;;0.70;0.70;;;-1.30;99.90;;;;;;5056940;28;20242;-79
2022/01/09 09:35:40;;;;;;;1.20;1.15;;;-1.40;99.90;;;;;;5072198;28;20209;-79
2022/01/09 09:38:05;;;;;;;0.70;0.70;;;-1.40;99.90;;;;;;5055035;28;20193;-80
2022/01/09 09:40:32;;;;;;;0.90;0.90;;;-1.40;99.90;;;;;;5073130;28;20212;-79
2022/01/09 09:42:58;;;;;;;0.77;0.77;;;-1.40;99.90;;;;;;5071004;28;20200;-81
2022/01/09 09:45:24;;;;;;;0.60;0.60;;;-1.40;99.90;;;;;;5055598;28;20229;-79
2022/01/09 09:47:55;;;;;;;0.77;0.77;;;-1.40;99.90;;;;;;5057058;28;20201;-81
2022/01/09 09:50:21;;;;;;;1.60;1.50;;;-1.40;99.90;;;;;;5056983;28;20247;-81
2022/01/09 09:52:48;;;;;;;0.98;0.98;;;-1.40;99.90;;;;;;5055854;28;20243;-79
2022/01/09 09:55:16;;;;;;;0.70;0.70;;;-1.40;99.90;;;;;;5067463;28;20283;-80
2022/01/09 09:57:42;;;;;;;0.80;0.80;;;-1.30;99.90;;;;;;5056771;28;20229;-79
2022/01/09 10:00:11;;;;;;;1.40;1.30;;;-1.40;99.90;;;;;;5055426;28;20282;-80
2022/01/09 10:02:41;;;;;;;0.75;0.75;;;-1.40;99.90;;;;;;5065253;28;20208;-80
2022/01/09 10:05:08;;;;;;;0.73;0.73;;;-1.30;99.90;;;;;;5073072;28;20270;-77
2022/01/09 10:07:33;;;;;;;0.70;0.70;;;-1.30;99.90;;;;;;5072803;28;20250;-81
2022/01/09 10:10:03;;;;;;;0.60;0.60;;;-1.30;99.90;;;;;;5072423;28;20208;-77
2022/01/09 10:12:31;;;;;;;0.60;0.60;;;-1.30;99.90;;;;;;5071312;28;20208;-78
2022/01/09 10:14:59;;;;;;;0.63;0.63;;;-1.30;99.90;;;;;;5064498;28;20288;-78
2022/01/09 10:17:26;;;;;;;0.77;0.77;;;-1.30;99.90;;;;;;5061585;28;20204;-78
2022/01/09 10:19:56;;;;;;;0.73;0.73;;;-1.30;99.90;;;;;;5072045;28;20204;-80
2022/01/09 10:22:37;;;;;;;0.73;0.73;;;-1.30;99.90;;;;;;5066299;28;20308;-79
2022/01/09 10:25:20;;;;;;;0.80;0.80;;;-1.30;99.90;;;;;;5061615;28;20199;-79
2022/01/09 10:28:02;;;;;;;0.77;0.77;;;-1.30;99.90;;;;;;5062302;28;20225;-80
2022/01/09 10:30:32;;;;;;;0.93;0.93;;;-1.20;99.90;;;;;;5055582;28;20208;-80
2022/01/09 10:33:10;;;;;;;0.80;0.80;;;-1.20;99.90;;;;;;5054931;28;20209;-80
2022/01/09 10:39:52;;;;;;;0.80;0.80;;;-1.20;99.90;;;;;;5041267;28;20742;-82
2022/01/09 10:42:27;;;;;;;0.95;0.95;;;-1.20;99.90;;;;;;5004097;28;20233;-82
2022/01/09 10:45:30;;;;;;;0.85;0.85;;;-1.20;99.90;;;;;;5076934;28;20666;-83
2022/01/09 10:48:09;;;;;;;1.20;1.10;;;-1.10;99.90;;;;;;5051787;28;20263;-76
2022/01/09 10:50:38;;;;;;;0.90;0.90;;;-1.10;99.90;;;;;;5061800;28;20289;-80
2022/01/09 10:53:18;;;;;;;2.58;2.35;;;-0.90;99.90;;;;;;5070531;28;20287;-80
2022/01/09 10:56:07;;;;;;;0.70;0.70;;;-0.80;99.90;;;;;;5071705;28;20566;-81
2022/01/09 10:58:46;;;;;;;0.70;0.70;;;-0.90;99.90;;;;;;5072975;28;20339;-80
2022/01/09 11:01:28;;;;;;;1.05;1.05;;;-0.90;99.90;;;;;;5056238;28;20677;-81
2022/01/09 11:11:50;;;;;;;;;;;;;;;;;;;;;
2022/01/09 11:17:42;;;;;;;4.20;2.35;;;-0.60;99.90;;;;;;5004295;28;20250;-81
2022/01/09 11:24:25;;;;;;;;;;;;;;;;;;;;;
2022/01/09 11:34:31;;;;;;;1.52;1.20;;;-0.60;99.90;;;;;;4947479;29;20264;-81
2022/01/09 11:37:26;;;;;;;0.70;0.70;;;-0.60;99.90;;;;;;4962570;28;20699;-80
2022/01/09 11:39:52;;;;;;;1.38;1.27;;;-0.50;99.90;;;;;;4940561;29;20225;-81
2022/01/09 11:42:21;;;;;;;0.77;0.77;;;-0.50;99.90;;;;;;4963918;28;20212;-80
2022/01/09 11:45:04;;;;;;;0.60;0.60;;;-0.50;99.90;;;;;;4948241;29;20689;-82
2022/01/09 11:47:53;;;;;;;0.80;0.80;;;-0.50;99.90;;;;;;4986276;28;20250;-82
2022/01/09 11:50:22;;;;;;;1.95;1.33;;;-0.40;99.90;;;;;;4977119;28;20230;-82
2022/01/09 11:52:58;;;;;;;1.00;1.00;;;-0.30;99.90;;;;;;4992892;28;20198;-81
2022/01/09 11:55:41;;;;;;;0.70;0.70;;;-0.20;99.90;;;;;;5003966;28;20602;-82
2022/01/09 11:58:10;;;;;;;0.70;0.70;;;-0.20;99.90;;;;;;4992648;28;20238;-81
2022/01/09 12:00:42;;;;;;;0.70;0.70;;;-0.20;99.90;;;;;;4984493;28;20723;-83
2022/01/09 12:03:38;;;;;;;0.80;0.80;;;-0.10;99.90;;;;;;4994765;28;20206;-82
2022/01/09 12:06:10;;;;;;;0.73;0.73;;;-0.10;99.90;;;;;;5053850;28;20200;-80
2022/01/09 12:08:56;;;;;;;0.85;0.85;;;-0.10;99.90;;;;;;5038281;28;20573;-80
2022/01/09 12:11:21;;;;;;;0.80;0.80;;;-0.20;99.90;;;;;;5051485;28;20661;-81
2022/01/09 12:13:51;;;;;;;0.88;0.88;;;-0.20;99.90;;;;;;5053450;28;20201;-81
2022/01/09 12:16:51;;;;;;;0.70;0.70;;;-0.30;99.90;;;;;;5045558;28;20204;-81
2022/01/09 12:20:24;;;;;;;0.57;0.57;;;-0.40;99.90;;;;;;5035689;28;20229;-80
2022/01/09 12:23:14;;;;;;;0.70;0.70;;;-0.30;99.90;;;;;;5040902;28;20592;-82
2022/01/09 12:25:43;;;;;;;0.70;0.70;;;-0.30;99.90;;;;;;5047400;28;20233;-81
2022/01/09 12:28:18;;;;;;;0.80;0.80;;;-0.20;99.90;;;;;;5053066;28;20210;-81
2022/01/09 12:30:57;;;;;;;0.73;0.73;;;-0.10;99.90;;;;;;5053361;28;20212;-80
2022/01/09 12:33:27;;;;;;;0.65;0.65;;;-0.20;99.90;;;;;;5053069;28;20201;-81
2022/01/09 12:36:17;;;;;;;0.90;0.90;;;-0.30;99.90;;;;;;5052650;28;20216;-78
2022/01/09 12:38:50;;;;;;;0.60;0.60;;;-0.50;99.90;;;;;;5036739;28;20239;-80
2022/01/09 12:41:24;;;;;;;0.75;0.75;;;-0.70;99.90;;;;;;5053363;28;20570;-79
2022/01/09 12:44:00;;;;;;;0.80;0.80;;;-0.80;99.90;;;;;;5053706;28;20197;-80
2022/01/09 12:46:27;;;;;;;0.70;0.70;;;-0.90;99.90;;;;;;5052347;28;20201;-79
2022/01/09 12:49:15;;;;;;;0.82;0.82;;;-1.00;99.90;;;;;;5053643;28;20190;-79
2022/01/09 12:51:47;;;;;;;0.70;0.70;;;-1.20;99.90;;;;;;5047046;28;20296;-79
2022/01/09 12:54:13;;;;;;;0.65;0.65;;;-1.10;99.90;;;;;;5053192;28;20248;-79
2022/01/09 12:56:39;;;;;;;0.90;0.90;;;-1.20;99.90;;;;;;5053185;28;20217;-79
2022/01/09 12:59:10;;;;;;;0.90;0.90;;;-1.20;99.90;;;;;;5073886;28;20664;-80
2022/01/09 13:01:41;;;;;;;0.80;0.80;;;-1.20;99.90;;;;;;5071296;28;20707;-79
2022/01/09 13:04:14;;;;;;;0.57;0.57;;;-1.30;99.90;;;;;;5073332;28;20196;-79
2022/01/09 13:06:44;;;;;;;0.60;0.60;;;-1.40;99.90;;;;;;5053582;28;20680;-80
2022/01/09 13:09:19;;;;;;;0.70;0.70;;;-1.40;99.90;;;;;;5055402;28;20216;-81
2022/01/09 13:11:51;;;;;;;0.70;0.70;;;-1.50;99.90;;;;;;5071864;28;20200;-80
2022/01/09 13:14:16;;;;;;;0.77;0.77;;;-1.50;99.90;;;;;;5074356;28;20676;-80
2022/01/09 13:16:42;;;;;;;0.70;0.70;;;-1.50;99.90;;;;;;5070951;28;20253;-80
2022/01/09 13:19:14;;;;;;;0.68;0.68;;;-1.50;99.90;;;;;;5057288;28;20213;-81
2022/01/09 13:21:41;;;;;;;0.68;0.68;;;-1.50;99.90;;;;;;5069132;28;20215;-79
2022/01/09 13:24:17;;;;;;;0.70;0.70;;;-1.60;99.90;;;;;;5058464;28;20201;-79
2022/01/09 13:26:54;;;;;;;0.80;0.80;;;-1.60;99.90;;;;;;5068774;28;20206;-80